createdAt,value
2023-11-12T00:02:00.000Z,1000.3
2023-11-12T00:04:45.000Z,1000.2
2023-11-12T00:07:29.000Z,1000.3
2023-11-12T00:10:14.000Z,1000.3
2023-11-12T00:15:43.000Z,1000.3
2023-11-12T00:18:28.000Z,1000.3
2023-11-12T00:21:13.000Z,1000.2
2023-11-12T00:23:57.000Z,1000.2
2023-11-12T00:25:41.000Z,1000.2
2023-11-12T00:26:58.000Z,1000.2
2023-11-12T00:29:43.000Z,1000.2
2023-11-12T00:32:28.000Z,1000.3
2023-11-12T00:35:12.000Z,1000.3
2023-11-12T00:37:57.000Z,1000.2
2023-11-12T00:40:41.000Z,1000.2
2023-11-12T00:43:26.000Z,1000.2
2023-11-12T00:46:11.000Z,1000.2
2023-11-12T00:48:55.000Z,1000.2
2023-11-12T00:51:40.000Z,1000.2
2023-11-12T00:53:07.000Z,1000.2
2023-11-12T00:54:25.000Z,1000.2
2023-11-12T00:57:09.000Z,1000.2
2023-11-12T00:59:54.000Z,1000.2
2023-11-12T01:02:39.000Z,1000.2
2023-11-12T01:05:23.000Z,1000.2
2023-11-12T01:08:08.000Z,1000.1
2023-11-12T01:10:52.000Z,1000.1
2023-11-12T01:13:37.000Z,1000
2023-11-12T01:16:22.000Z,1000.1
2023-11-12T01:19:06.000Z,1000.1
2023-11-12T01:20:33.000Z,1000
2023-11-12T01:21:51.000Z,1000
2023-11-12T01:24:36.000Z,1000
2023-11-12T01:27:20.000Z,1000
2023-11-12T01:30:05.000Z,1000
2023-11-12T01:32:50.000Z,1000
2023-11-12T01:35:34.000Z,1000
2023-11-12T01:38:19.000Z,1000
2023-11-12T01:41:04.000Z,999.9
2023-11-12T01:43:48.000Z,999.9
2023-11-12T01:46:33.000Z,999.9
2023-11-12T01:48:00.000Z,999.9
2023-11-12T01:49:17.000Z,1000
2023-11-12T01:52:02.000Z,999.9
2023-11-12T01:54:47.000Z,999.9
2023-11-12T01:57:31.000Z,999.9
2023-11-12T02:00:16.000Z,999.8
2023-11-12T02:03:01.000Z,999.8
2023-11-12T02:05:45.000Z,999.8
2023-11-12T02:08:30.000Z,999.9
2023-11-12T02:11:15.000Z,999.8
2023-11-12T02:15:26.000Z,999.8
2023-11-12T02:16:44.000Z,999.9
2023-11-12T02:19:29.000Z,999.8
2023-11-12T02:22:13.000Z,999.9
2023-11-12T02:24:58.000Z,999.8
2023-11-12T02:27:42.000Z,999.9
2023-11-12T02:30:27.000Z,999.8
2023-11-12T02:33:12.000Z,999.9
2023-11-12T02:35:56.000Z,999.9
2023-11-12T02:38:41.000Z,999.9
2023-11-12T02:41:26.000Z,999.9
2023-11-12T02:42:53.000Z,1000
2023-11-12T02:44:10.000Z,1000
2023-11-12T02:46:55.000Z,1000
2023-11-12T02:49:40.000Z,999.9
2023-11-12T02:52:24.000Z,1000
2023-11-12T02:55:09.000Z,1000
2023-11-12T02:57:54.000Z,999.9
2023-11-12T03:00:38.000Z,999.9
2023-11-12T03:03:23.000Z,999.9
2023-11-12T03:06:07.000Z,999.9
2023-11-12T03:08:52.000Z,1000
2023-11-12T03:10:19.000Z,999.9
2023-11-12T03:11:37.000Z,999.9
2023-11-12T03:14:21.000Z,999.9
2023-11-12T03:17:06.000Z,999.9
2023-11-12T03:19:51.000Z,999.9
2023-11-12T03:22:35.000Z,999.9
2023-11-12T03:25:20.000Z,999.9
2023-11-12T03:28:05.000Z,999.8
2023-11-12T03:30:49.000Z,999.8
2023-11-12T03:33:34.000Z,999.8
2023-11-12T03:36:19.000Z,999.7
2023-11-12T03:37:45.000Z,999.7
2023-11-12T03:39:03.000Z,999.7
2023-11-12T03:41:48.000Z,999.8
2023-11-12T03:44:32.000Z,999.8
2023-11-12T03:47:17.000Z,999.8
2023-11-12T03:50:02.000Z,999.8
2023-11-12T03:52:46.000Z,999.8
2023-11-12T03:55:31.000Z,999.8
2023-11-12T03:58:16.000Z,999.9
2023-11-12T04:01:00.000Z,999.8
2023-11-12T04:03:45.000Z,999.8
2023-11-12T04:05:12.000Z,999.8
2023-11-12T04:06:30.000Z,999.9
2023-11-12T04:09:14.000Z,999.8
2023-11-12T04:11:59.000Z,999.9
2023-11-12T04:14:44.000Z,999.9
2023-11-12T04:17:28.000Z,999.8
2023-11-12T04:20:13.000Z,999.8
2023-11-12T04:22:57.000Z,999.7
2023-11-12T04:25:42.000Z,999.7
2023-11-12T04:28:27.000Z,999.7
2023-11-12T04:31:11.000Z,999.7
2023-11-12T04:32:38.000Z,999.7
2023-11-12T04:33:56.000Z,999.7
2023-11-12T04:36:41.000Z,999.7
2023-11-12T04:39:25.000Z,999.8
2023-11-12T04:42:26.000Z,999.9
2023-11-12T04:45:11.000Z,999.8
2023-11-12T04:47:56.000Z,999.9
2023-11-12T04:50:40.000Z,999.9
2023-11-12T04:53:25.000Z,999.9
2023-11-12T04:56:10.000Z,999.9
2023-11-12T04:58:54.000Z,999.9
2023-11-12T05:00:12.000Z,999.9
2023-11-12T05:01:39.000Z,999.9
2023-11-12T05:04:23.000Z,999.9
2023-11-12T05:07:08.000Z,999.9
2023-11-12T05:09:53.000Z,999.9
2023-11-12T05:12:37.000Z,999.9
2023-11-12T05:15:22.000Z,999.9
2023-11-12T05:18:07.000Z,999.9
2023-11-12T05:20:51.000Z,999.9
2023-11-12T05:23:36.000Z,1000
2023-11-12T05:26:21.000Z,1000
2023-11-12T05:27:38.000Z,1000
2023-11-12T05:29:05.000Z,1000
2023-11-12T05:31:50.000Z,1000
2023-11-12T05:34:35.000Z,1000.1
2023-11-12T05:37:19.000Z,1000.1
2023-11-12T05:40:04.000Z,1000
2023-11-12T05:42:48.000Z,1000
2023-11-12T05:45:33.000Z,1000
2023-11-12T05:48:18.000Z,1000.1
2023-11-12T05:51:02.000Z,1000
2023-11-12T05:53:47.000Z,1000.1
2023-11-12T05:55:05.000Z,1000.1
2023-11-12T05:56:32.000Z,1000.2
2023-11-12T05:59:16.000Z,1000.2
2023-11-12T06:02:01.000Z,1000.2
2023-11-12T06:04:46.000Z,1000.2
2023-11-12T06:07:30.000Z,1000.2
2023-11-12T06:10:15.000Z,1000.2
2023-11-12T06:13:00.000Z,1000.2
2023-11-12T06:15:44.000Z,1000.2
2023-11-12T06:18:29.000Z,1000.2
2023-11-12T06:21:13.000Z,1000.2
2023-11-12T06:22:31.000Z,1000.3
2023-11-12T06:23:58.000Z,1000.2
2023-11-12T06:26:43.000Z,1000.2
2023-11-12T06:29:27.000Z,1000.2
2023-11-12T06:32:12.000Z,1000.3
2023-11-12T06:34:57.000Z,1000.3
2023-11-12T06:37:41.000Z,1000.3
2023-11-12T06:40:26.000Z,1000.4
2023-11-12T06:43:11.000Z,1000.4
2023-11-12T06:45:55.000Z,1000.4
2023-11-12T06:48:40.000Z,1000.4
2023-11-12T06:49:58.000Z,1000.5
2023-11-12T06:51:24.000Z,1000.5
2023-11-12T06:54:09.000Z,1000.5
2023-11-12T06:56:54.000Z,1000.5
2023-11-12T06:59:38.000Z,1000.5
2023-11-12T07:02:23.000Z,1000.6
2023-11-12T07:05:08.000Z,1000.6
2023-11-12T07:07:52.000Z,1000.6
2023-11-12T07:10:37.000Z,1000.6
2023-11-12T07:13:22.000Z,1000.7
2023-11-12T07:16:06.000Z,1000.7
2023-11-12T07:17:24.000Z,1000.6
2023-11-12T07:18:51.000Z,1000.6
2023-11-12T07:21:36.000Z,1000.7
2023-11-12T07:24:20.000Z,1000.7
2023-11-12T07:27:05.000Z,1000.7
2023-11-12T07:29:49.000Z,1000.7
2023-11-12T07:32:34.000Z,1000.7
2023-11-12T07:35:19.000Z,1000.7
2023-11-12T07:38:03.000Z,1000.8
2023-11-12T07:40:48.000Z,1000.8
2023-11-12T07:43:33.000Z,1000.8
2023-11-12T07:44:50.000Z,1000.8
2023-11-12T07:46:17.000Z,1000.9
2023-11-12T07:49:02.000Z,1000.9
2023-11-12T07:51:47.000Z,1000.9
2023-11-12T07:54:31.000Z,1000.9
2023-11-12T07:57:16.000Z,1000.8
2023-11-12T08:00:00.000Z,1000.9
2023-11-12T08:02:45.000Z,1000.9
2023-11-12T08:05:30.000Z,1000.9
2023-11-12T08:08:14.000Z,1000.9
2023-11-12T08:10:59.000Z,1001
2023-11-12T08:12:17.000Z,1001
2023-11-12T08:13:44.000Z,1001
2023-11-12T08:19:13.000Z,1001.1
2023-11-12T08:21:58.000Z,1001.1
2023-11-12T08:24:42.000Z,1001.2
2023-11-12T08:27:27.000Z,1001.2
2023-11-12T08:30:12.000Z,1001.2
2023-11-12T08:32:56.000Z,1001.3
2023-11-12T08:35:41.000Z,1001.2
2023-11-12T08:38:25.000Z,1001.3
2023-11-12T08:39:43.000Z,1001.2
2023-11-12T08:41:10.000Z,1001.2
2023-11-12T08:43:55.000Z,1001.2
2023-11-12T08:46:39.000Z,1001.2
2023-11-12T08:49:24.000Z,1001.3
2023-11-12T08:52:09.000Z,1001.3
2023-11-12T08:54:53.000Z,1001.3
2023-11-12T08:57:38.000Z,1001.4
2023-11-12T09:00:23.000Z,1001.3
2023-11-12T09:03:07.000Z,1001.4
2023-11-12T09:05:52.000Z,1001.4
2023-11-12T09:07:10.000Z,1001.4
2023-11-12T09:08:36.000Z,1001.4
2023-11-12T09:11:21.000Z,1001.4
2023-11-12T09:14:06.000Z,1001.4
2023-11-12T09:16:50.000Z,1001.4
2023-11-12T09:19:35.000Z,1001.4
2023-11-12T09:22:20.000Z,1001.5
2023-11-12T09:25:04.000Z,1001.4
2023-11-12T09:27:49.000Z,1001.5
2023-11-12T09:30:34.000Z,1001.5
2023-11-12T09:34:36.000Z,1001.5
2023-11-12T09:36:03.000Z,1001.6
2023-11-12T09:38:48.000Z,1001.5
2023-11-12T09:41:32.000Z,1001.5
2023-11-12T09:44:17.000Z,1001.5
2023-11-12T09:47:01.000Z,1001.6
2023-11-12T09:49:46.000Z,1001.6
2023-11-12T09:52:31.000Z,1001.6
2023-11-12T09:55:15.000Z,1001.5
2023-11-12T09:58:00.000Z,1001.5
2023-11-12T10:00:45.000Z,1001.5
2023-11-12T10:02:03.000Z,1001.5
2023-11-12T10:03:29.000Z,1001.5
2023-11-12T10:06:14.000Z,1001.5
2023-11-12T10:08:59.000Z,1001.5
2023-11-12T10:11:43.000Z,1001.5
2023-11-12T10:14:28.000Z,1001.4
2023-11-12T10:17:13.000Z,1001.5
2023-11-12T10:19:57.000Z,1001.4
2023-11-12T10:22:42.000Z,1001.4
2023-11-12T10:25:26.000Z,1001.4
2023-11-12T10:28:11.000Z,1001.4
2023-11-12T10:29:29.000Z,1001.3
2023-11-12T10:30:56.000Z,1001.3
2023-11-12T10:33:40.000Z,1001.2
2023-11-12T10:36:25.000Z,1001.3
2023-11-12T10:41:54.000Z,1001.2
2023-11-12T10:44:39.000Z,1001.2
2023-11-12T10:47:24.000Z,1001.2
2023-11-12T10:50:08.000Z,1001.2
2023-11-12T10:52:53.000Z,1001.2
2023-11-12T10:55:37.000Z,1001.2
2023-11-12T10:56:55.000Z,1001.2
2023-11-12T10:58:22.000Z,1001.2
2023-11-12T11:01:07.000Z,1001.2
2023-11-12T11:03:51.000Z,1001.2
2023-11-12T11:06:36.000Z,1001.1
2023-11-12T11:09:21.000Z,1001.1
2023-11-12T11:14:50.000Z,1001
2023-11-12T11:17:35.000Z,1000.9
2023-11-12T11:20:19.000Z,1000.8
2023-11-12T11:23:04.000Z,1000.9
2023-11-12T11:24:22.000Z,1000.8
2023-11-12T11:25:49.000Z,1000.8
2023-11-12T11:28:33.000Z,1000.8
2023-11-12T11:31:18.000Z,1000.8
2023-11-12T11:34:02.000Z,1000.8
2023-11-12T11:36:47.000Z,1000.9
2023-11-12T11:39:32.000Z,1000.9
2023-11-12T11:42:16.000Z,1000.8
2023-11-12T11:45:01.000Z,1000.9
2023-11-12T11:47:46.000Z,1000.9
2023-11-12T11:50:30.000Z,1000.8
2023-11-12T11:51:48.000Z,1000.9
2023-11-12T11:53:15.000Z,1000.8
2023-11-12T11:56:00.000Z,1000.8
2023-11-12T11:58:44.000Z,1000.8
2023-11-12T12:01:29.000Z,1000.8
2023-11-12T12:04:13.000Z,1000.8
2023-11-12T12:06:58.000Z,1000.8
2023-11-12T12:09:43.000Z,1000.8
2023-11-12T12:12:27.000Z,1000.8
2023-11-12T12:15:12.000Z,1000.8
2023-11-12T12:17:57.000Z,1000.9
2023-11-12T12:19:15.000Z,1000.9
2023-11-12T12:20:41.000Z,1000.9
2023-11-12T12:23:26.000Z,1001
2023-11-12T12:26:11.000Z,1001
2023-11-12T12:28:55.000Z,1001
2023-11-12T12:31:40.000Z,1001
2023-11-12T12:34:25.000Z,1001.1
2023-11-12T12:37:09.000Z,1001.1
2023-11-12T12:39:54.000Z,1001.1
2023-11-12T12:42:38.000Z,1001.1
2023-11-12T12:45:23.000Z,1001.2
2023-11-12T12:46:41.000Z,1001.2
2023-11-12T12:48:08.000Z,1001.3
2023-11-12T12:50:52.000Z,1001.2
2023-11-12T12:53:37.000Z,1001.3
2023-11-12T12:56:22.000Z,1001.2
2023-11-12T12:59:06.000Z,1001.3
2023-11-12T13:01:51.000Z,1001.3
2023-11-12T13:04:36.000Z,1001.3
2023-11-12T13:07:20.000Z,1001.3
2023-11-12T13:10:05.000Z,1001.3
2023-11-12T13:12:49.000Z,1001.3
2023-11-12T13:14:08.000Z,1001.3
2023-11-12T13:15:34.000Z,1001.3
2023-11-12T13:18:19.000Z,1001.3
2023-11-12T13:21:03.000Z,1001.3
2023-11-12T13:23:48.000Z,1001.2
2023-11-12T13:26:33.000Z,1001.2
2023-11-12T13:29:17.000Z,1001.2
2023-11-12T13:32:02.000Z,1001.3
2023-11-12T13:34:47.000Z,1001.3
2023-11-12T13:37:31.000Z,1001.3
2023-11-12T13:40:16.000Z,1001.4
2023-11-12T13:41:34.000Z,1001.4
2023-11-12T13:43:01.000Z,1001.3
2023-11-12T13:45:45.000Z,1001.4
2023-11-12T13:48:30.000Z,1001.4
2023-11-12T13:51:14.000Z,1001.4
2023-11-12T13:53:59.000Z,1001.3
2023-11-12T13:56:44.000Z,1001.3
2023-11-12T13:59:28.000Z,1001.4
2023-11-12T14:02:13.000Z,1001.3
2023-11-12T14:07:26.000Z,1001.3
2023-11-12T14:09:00.000Z,1001.4
2023-11-12T14:10:18.000Z,1001.4
2023-11-12T14:13:03.000Z,1001.4
2023-11-12T14:15:47.000Z,1001.4
2023-11-12T14:18:32.000Z,1001.4
2023-11-12T14:21:17.000Z,1001.5
2023-11-12T14:24:18.000Z,1001.5
2023-11-12T14:27:02.000Z,1001.5
2023-11-12T14:29:47.000Z,1001.4
2023-11-12T14:32:32.000Z,1001.5
2023-11-12T14:35:16.000Z,1001.6
2023-11-12T14:36:34.000Z,1001.6
2023-11-12T14:38:01.000Z,1001.6
2023-11-12T14:40:46.000Z,1001.6
2023-11-12T14:43:30.000Z,1001.6
2023-11-12T14:46:15.000Z,1001.6
2023-11-12T14:48:59.000Z,1001.7
2023-11-12T14:51:44.000Z,1001.7
2023-11-12T14:54:29.000Z,1001.7
2023-11-12T14:57:13.000Z,1001.7
2023-11-12T14:59:58.000Z,1001.7
2023-11-12T15:02:43.000Z,1001.7
2023-11-12T15:04:00.000Z,1001.8
2023-11-12T15:05:27.000Z,1001.8
2023-11-12T15:08:12.000Z,1001.8
2023-11-12T15:10:57.000Z,1001.8
2023-11-12T15:13:41.000Z,1001.9
2023-11-12T15:16:26.000Z,1001.8
2023-11-12T15:19:10.000Z,1001.9
2023-11-12T15:21:55.000Z,1001.8
2023-11-12T15:24:40.000Z,1001.9
2023-11-12T15:27:24.000Z,1001.9
2023-11-12T15:30:09.000Z,1001.9
2023-11-12T15:31:27.000Z,1002
2023-11-12T15:32:54.000Z,1001.9
2023-11-12T15:35:38.000Z,1002
2023-11-12T15:38:23.000Z,1002
2023-11-12T15:41:08.000Z,1001.9
2023-11-12T15:43:52.000Z,1002
2023-11-12T15:46:37.000Z,1002
2023-11-12T15:49:22.000Z,1002
2023-11-12T15:52:06.000Z,1002
2023-11-12T15:54:51.000Z,1002
2023-11-12T15:57:35.000Z,1002
2023-11-12T15:58:53.000Z,1002.1
2023-11-12T16:00:20.000Z,1002.1
2023-11-12T16:03:05.000Z,1002.1
2023-11-12T16:05:49.000Z,1002.1
2023-11-12T16:08:34.000Z,1002.1
2023-11-12T16:11:19.000Z,1002.1
2023-11-12T16:14:03.000Z,1002.1
2023-11-12T16:16:48.000Z,1002.1
2023-11-12T16:19:33.000Z,1002.2
2023-11-12T16:22:17.000Z,1002.2
2023-11-12T16:25:02.000Z,1002.2
2023-11-12T16:26:20.000Z,1002.2
2023-11-12T16:27:47.000Z,1002.2
2023-11-12T16:30:31.000Z,1002.3
2023-11-12T16:33:16.000Z,1002.3
2023-11-12T16:36:00.000Z,1002.3
2023-11-12T16:38:45.000Z,1002.3
2023-11-12T16:41:30.000Z,1002.4
2023-11-12T16:44:14.000Z,1002.3
2023-11-12T16:46:59.000Z,1002.4
2023-11-12T16:49:44.000Z,1002.4
2023-11-12T16:52:28.000Z,1002.5
2023-11-12T16:53:46.000Z,1002.5
2023-11-12T16:57:58.000Z,1002.5
2023-11-12T17:00:42.000Z,1002.6
2023-11-12T17:03:27.000Z,1002.6
2023-11-12T17:06:11.000Z,1002.7
2023-11-12T17:08:56.000Z,1002.7
2023-11-12T17:11:41.000Z,1002.6
2023-11-12T17:14:25.000Z,1002.6
2023-11-12T17:17:10.000Z,1002.6
2023-11-12T17:19:55.000Z,1002.6
2023-11-12T17:21:13.000Z,1002.6
2023-11-12T17:22:39.000Z,1002.7
2023-11-12T17:25:24.000Z,1002.7
2023-11-12T17:28:09.000Z,1002.7
2023-11-12T17:30:53.000Z,1002.8
2023-11-12T17:33:38.000Z,1002.8
2023-11-12T17:36:23.000Z,1002.8
2023-11-12T17:39:07.000Z,1002.8
2023-11-12T17:41:52.000Z,1002.9
2023-11-12T17:44:36.000Z,1002.9
2023-11-12T17:47:21.000Z,1002.9
2023-11-12T17:48:39.000Z,1002.8
2023-11-12T17:50:06.000Z,1002.8
2023-11-12T17:52:50.000Z,1002.8
2023-11-12T17:55:35.000Z,1002.9
2023-11-12T17:58:20.000Z,1002.8
2023-11-12T18:01:04.000Z,1002.9
2023-11-12T18:03:49.000Z,1002.8
2023-11-12T18:06:34.000Z,1002.9
2023-11-12T18:09:18.000Z,1002.9
2023-11-12T18:12:03.000Z,1002.8
2023-11-12T18:14:47.000Z,1002.9
2023-11-12T18:16:05.000Z,1002.8
2023-11-12T18:17:32.000Z,1002.9
2023-11-12T18:20:17.000Z,1002.9
2023-11-12T18:23:01.000Z,1002.9
2023-11-12T18:25:46.000Z,1002.9
2023-11-12T18:28:31.000Z,1002.9
2023-11-12T18:31:15.000Z,1002.9
2023-11-12T18:34:00.000Z,1002.9
2023-11-12T18:36:45.000Z,1003
2023-11-12T18:39:29.000Z,1003
2023-11-12T18:42:14.000Z,1003.1
2023-11-12T18:43:32.000Z,1003.1
2023-11-12T18:44:59.000Z,1003.1
2023-11-12T18:47:43.000Z,1003.2
2023-11-12T18:50:28.000Z,1003.2
2023-11-12T18:53:12.000Z,1003.2
2023-11-12T18:55:57.000Z,1003.3
2023-11-12T18:58:42.000Z,1003.2
2023-11-12T19:01:26.000Z,1003.4
2023-11-12T19:04:11.000Z,1003.4
2023-11-12T19:06:56.000Z,1003.5
2023-11-12T19:09:40.000Z,1003.5
2023-11-12T19:10:58.000Z,1003.5
2023-11-12T19:12:25.000Z,1003.6
2023-11-12T19:15:10.000Z,1003.5
2023-11-12T19:17:54.000Z,1003.6
2023-11-12T19:20:39.000Z,1003.6
2023-11-12T19:23:23.000Z,1003.7
2023-11-12T19:26:08.000Z,1003.7
2023-11-12T19:28:53.000Z,1003.7
2023-11-12T19:31:37.000Z,1003.8
2023-11-12T19:34:22.000Z,1003.8
2023-11-12T19:37:07.000Z,1003.8
2023-11-12T19:38:25.000Z,1003.7
2023-11-12T19:39:51.000Z,1003.7
2023-11-12T19:42:36.000Z,1003.6
2023-11-12T19:45:21.000Z,1003.5
2023-11-12T19:48:05.000Z,1003.4
2023-11-12T19:50:50.000Z,1003.3
2023-11-12T19:53:35.000Z,1003.1
2023-11-12T19:56:19.000Z,1003.1
2023-11-12T19:59:04.000Z,1003
2023-11-12T20:01:48.000Z,1003
2023-11-12T20:04:33.000Z,1003
2023-11-12T20:05:51.000Z,1003.1
2023-11-12T20:07:18.000Z,1003.1
2023-11-12T20:10:02.000Z,1003.1
2023-11-12T20:12:47.000Z,1003.2
2023-11-12T20:15:32.000Z,1003.3
2023-11-12T20:18:16.000Z,1003.3
2023-11-12T20:21:01.000Z,1003.4
2023-11-12T20:23:46.000Z,1003.4
2023-11-12T20:26:30.000Z,1003.5
2023-11-12T20:29:15.000Z,1003.7
2023-11-12T20:32:00.000Z,1003.8
2023-11-12T20:33:17.000Z,1003.8
2023-11-12T20:34:44.000Z,1003.9
2023-11-12T20:37:29.000Z,1003.9
2023-11-12T20:40:13.000Z,1004
2023-11-12T20:42:58.000Z,1004
2023-11-12T20:45:43.000Z,1004
2023-11-12T20:48:27.000Z,1004
2023-11-12T20:51:12.000Z,1004
2023-11-12T20:53:57.000Z,1004
2023-11-12T20:56:41.000Z,1004
2023-11-12T20:59:26.000Z,1004
2023-11-12T21:00:44.000Z,1004
2023-11-12T21:02:11.000Z,1004.1
2023-11-12T21:04:55.000Z,1004.1
2023-11-12T21:07:40.000Z,1004.1
2023-11-12T21:10:24.000Z,1004.1
2023-11-12T21:13:09.000Z,1004.1
2023-11-12T21:15:54.000Z,1004
2023-11-12T21:18:38.000Z,1004
2023-11-12T21:21:23.000Z,1004
2023-11-12T21:24:08.000Z,1004
2023-11-12T21:26:52.000Z,1003.9
2023-11-12T21:28:10.000Z,1003.8
2023-11-12T21:29:37.000Z,1003.8
2023-11-12T21:32:22.000Z,1003.7
2023-11-12T21:35:06.000Z,1003.7
2023-11-12T21:37:51.000Z,1003.7
2023-11-12T21:40:36.000Z,1003.7
2023-11-12T21:43:20.000Z,1003.6
2023-11-12T21:46:05.000Z,1003.6
2023-11-12T21:48:49.000Z,1003.7
2023-11-12T21:51:34.000Z,1003.7
2023-11-12T21:54:19.000Z,1003.6
2023-11-12T21:55:37.000Z,1003.5
2023-11-12T21:59:48.000Z,1003.5
2023-11-12T22:02:33.000Z,1003.5
2023-11-12T22:05:17.000Z,1003.4
2023-11-12T22:08:02.000Z,1003.5
2023-11-12T22:10:47.000Z,1003.6
2023-11-12T22:13:31.000Z,1003.7
2023-11-12T22:16:16.000Z,1003.8
2023-11-12T22:19:01.000Z,1003.8
2023-11-12T22:21:45.000Z,1003.7
2023-11-12T22:23:03.000Z,1003.6
2023-11-12T22:24:30.000Z,1003.6
2023-11-12T22:27:14.000Z,1003.7
2023-11-12T22:29:59.000Z,1003.7
2023-11-12T22:32:44.000Z,1003.9
2023-11-12T22:35:28.000Z,1004.1
2023-11-12T22:38:13.000Z,1004.2
2023-11-12T22:40:58.000Z,1004.1
2023-11-12T22:43:43.000Z,1004.2
2023-11-12T22:46:43.000Z,1004.2
2023-11-12T22:49:28.000Z,1004.3
2023-11-12T22:50:46.000Z,1004.4
2023-11-12T22:52:13.000Z,1004.4
2023-11-12T22:54:57.000Z,1004.4
2023-11-12T22:57:42.000Z,1004.5
2023-11-12T23:00:27.000Z,1004.4
2023-11-12T23:03:11.000Z,1004.4
2023-11-12T23:05:56.000Z,1004.4
2023-11-12T23:08:40.000Z,1004.6
2023-11-12T23:11:25.000Z,1004.6
2023-11-12T23:14:10.000Z,1004.6
2023-11-12T23:16:54.000Z,1004.5
2023-11-12T23:18:12.000Z,1004.4
2023-11-12T23:19:39.000Z,1004.3
2023-11-12T23:22:24.000Z,1004.3
2023-11-12T23:25:08.000Z,1004.1
2023-11-12T23:27:53.000Z,1004
2023-11-12T23:30:38.000Z,1004
2023-11-12T23:33:22.000Z,1003.9
2023-11-12T23:36:07.000Z,1003.7
2023-11-12T23:38:52.000Z,1003.7
2023-11-12T23:41:36.000Z,1003.7
2023-11-12T23:44:21.000Z,1003.8
2023-11-12T23:45:39.000Z,1003.9
2023-11-12T23:47:05.000Z,1003.8
2023-11-12T23:49:50.000Z,1003.6
2023-11-12T23:52:35.000Z,1003.6
2023-11-12T23:55:19.000Z,1003.7
2023-11-12T23:58:04.000Z,1003.7
